createdAt,value
2019-04-30T00:01:09.324Z,9.90
2019-04-30T00:03:40.095Z,8.43
2019-04-30T00:06:09.471Z,7.83
2019-04-30T00:08:39.201Z,7.43
2019-04-30T00:11:10.933Z,6.90
2019-04-30T00:13:40.135Z,6.93
2019-04-30T00:16:09.435Z,8.20
2019-04-30T00:18:39.730Z,7.63
2019-04-30T00:21:14.108Z,8.53
2019-04-30T00:23:40.864Z,7.30
2019-04-30T00:26:10.563Z,7.87
2019-04-30T00:28:44.354Z,7.27
2019-04-30T00:31:11.453Z,9.47
2019-04-30T00:33:40.786Z,8.87
2019-04-30T00:36:10.149Z,9.77
2019-04-30T00:38:39.444Z,7.47
2019-04-30T00:41:10.205Z,6.90
2019-04-30T00:43:46.588Z,8.73
2019-04-30T00:46:10.792Z,6.97
2019-04-30T00:48:40.097Z,8.13
2019-04-30T00:51:17.904Z,10.10
2019-04-30T00:53:43.974Z,6.90
2019-04-30T00:56:11.433Z,9.40
2019-04-30T00:58:40.975Z,7.57
2019-04-30T01:01:29.390Z,8.00
2019-04-30T01:04:05.118Z,7.70
2019-04-30T01:06:35.005Z,6.83
2019-04-30T01:09:08.414Z,7.03
2019-04-30T01:11:39.773Z,8.53
2019-04-30T01:14:07.054Z,6.27
2019-04-30T01:16:36.358Z,6.30
2019-04-30T01:19:09.262Z,6.60
2019-04-30T01:21:41.753Z,8.00
2019-04-30T01:24:08.958Z,6.23
2019-04-30T01:26:40.212Z,6.43
2019-04-30T01:29:10.274Z,7.00
2019-04-30T01:31:40.797Z,6.80
2019-04-30T01:34:13.873Z,5.37
2019-04-30T01:36:43.553Z,5.20
2019-04-30T01:39:13.555Z,5.77
2019-04-30T01:41:42.831Z,6.13
2019-04-30T01:44:12.274Z,6.27
2019-04-30T01:46:43.181Z,6.53
2019-04-30T01:49:12.617Z,8.97
2019-04-30T01:51:41.947Z,6.57
2019-04-30T01:54:13.672Z,6.47
2019-04-30T01:56:59.925Z,7.23
2019-04-30T01:59:48.660Z,6.17
2019-04-30T02:02:18.649Z,6.53
2019-04-30T02:04:49.198Z,5.83
2019-04-30T02:07:19.073Z,5.57
2019-04-30T02:09:48.907Z,6.10
2019-04-30T02:12:19.761Z,5.83
2019-04-30T02:14:49.800Z,6.53
2019-04-30T02:17:20.324Z,7.53
2019-04-30T02:19:56.550Z,5.67
2019-04-30T02:22:20.641Z,5.13
2019-04-30T02:24:49.935Z,5.63
2019-04-30T02:27:21.604Z,4.97
2019-04-30T02:29:50.480Z,8.37
2019-04-30T02:32:20.763Z,6.07
2019-04-30T02:34:59.667Z,5.30
2019-04-30T02:37:31.365Z,6.17
2019-04-30T02:40:01.072Z,4.63
2019-04-30T02:42:31.317Z,4.90
2019-04-30T02:45:03.898Z,5.00
2019-04-30T02:47:34.558Z,7.77
2019-04-30T02:50:15.647Z,5.50
2019-04-30T02:52:36.312Z,7.03
2019-04-30T02:55:09.475Z,5.80
2019-04-30T02:57:40.148Z,5.90
2019-04-30T03:00:20.595Z,7.70
2019-04-30T03:02:50.584Z,8.90
2019-04-30T03:05:20.296Z,7.67
2019-04-30T03:07:52.971Z,8.47
2019-04-30T03:10:20.411Z,6.17
2019-04-30T03:12:50.080Z,7.07
2019-04-30T03:15:22.830Z,6.27
2019-04-30T03:17:57.117Z,6.73
2019-04-30T03:20:49.742Z,6.57
2019-04-30T03:23:19.565Z,7.37
2019-04-30T03:25:50.134Z,8.63
2019-04-30T03:28:39.669Z,8.47
2019-04-30T03:31:12.392Z,8.77
2019-04-30T03:33:42.495Z,8.40
2019-04-30T03:36:12.535Z,8.97
2019-04-30T03:38:42.793Z,8.97
2019-04-30T03:41:12.004Z,9.40
2019-04-30T03:43:41.127Z,9.00
2019-04-30T03:46:10.411Z,9.80
2019-04-30T03:48:39.692Z,9.57
2019-04-30T03:51:10.675Z,9.23
2019-04-30T03:53:42.592Z,9.53
2019-04-30T03:56:10.389Z,8.97
2019-04-30T03:58:39.769Z,9.93
2019-04-30T04:01:29.467Z,8.47
2019-04-30T04:04:10.664Z,11.60
2019-04-30T04:06:43.504Z,8.93
2019-04-30T04:09:21.948Z,9.93
2019-04-30T04:11:50.923Z,9.73
2019-04-30T04:14:20.152Z,12.10
2019-04-30T04:16:50.923Z,10.37
2019-04-30T04:19:20.452Z,11.27
2019-04-30T04:21:50.998Z,12.33
2019-04-30T04:24:20.627Z,11.07
2019-04-30T04:26:50.386Z,11.57
2019-04-30T04:29:19.885Z,12.70
2019-04-30T04:31:50.245Z,14.80
2019-04-30T04:34:19.938Z,11.80
2019-04-30T04:36:50.559Z,17.17
2019-04-30T04:39:20.425Z,14.27
2019-04-30T04:41:50.576Z,15.33
2019-04-30T04:44:20.487Z,12.23
2019-04-30T04:46:50.707Z,13.10
2019-04-30T04:49:20.850Z,13.17
2019-04-30T04:51:50.135Z,14.57
2019-04-30T04:54:20.179Z,13.60
2019-04-30T04:56:52.887Z,15.97
2019-04-30T04:59:20.670Z,17.37
2019-04-30T05:01:50.333Z,15.50
2019-04-30T05:04:19.962Z,15.27
2019-04-30T05:06:49.827Z,16.23
2019-04-30T05:09:19.539Z,16.73
2019-04-30T05:11:48.888Z,15.70
2019-04-30T05:14:18.961Z,15.53
2019-04-30T05:16:48.844Z,15.70
2019-04-30T05:19:18.680Z,19.90
2019-04-30T05:21:49.495Z,17.87
2019-04-30T05:24:19.004Z,18.13
2019-04-30T05:26:48.720Z,17.53
2019-04-30T05:29:19.007Z,17.00
2019-04-30T05:31:48.664Z,19.10
2019-04-30T05:34:18.908Z,19.73
2019-04-30T05:36:49.041Z,19.97
2019-04-30T05:39:18.870Z,17.70
2019-04-30T05:41:49.117Z,18.87
2019-04-30T05:44:18.576Z,17.30
2019-04-30T05:46:49.414Z,19.77
2019-04-30T05:49:20.390Z,17.50
2019-04-30T05:51:55.588Z,18.33
2019-04-30T05:54:20.483Z,18.77
2019-04-30T05:56:49.551Z,16.67
2019-04-30T05:59:20.512Z,17.73
2019-04-30T06:01:50.823Z,16.70
2019-04-30T06:04:21.179Z,19.60
2019-04-30T06:06:50.271Z,19.83
2019-04-30T06:09:33.704Z,20.90
2019-04-30T06:12:11.217Z,17.30
2019-04-30T06:14:48.946Z,20.40
2019-04-30T06:17:16.891Z,21.20
2019-04-30T06:19:46.299Z,18.70
2019-04-30T06:22:15.587Z,18.57
2019-04-30T06:24:44.676Z,19.63
2019-04-30T06:27:13.760Z,18.93
2019-04-30T06:29:43.292Z,18.63
2019-04-30T06:32:12.375Z,20.30
2019-04-30T06:34:42.176Z,19.13
2019-04-30T06:37:11.821Z,19.43
2019-04-30T06:39:41.004Z,17.93
2019-04-30T06:42:12.778Z,17.03
2019-04-30T06:44:41.883Z,19.53
2019-04-30T06:47:11.421Z,19.03
2019-04-30T06:49:40.499Z,18.07
2019-04-30T06:55:04.024Z,19.07
2019-04-30T06:57:33.131Z,16.83
2019-04-30T07:00:02.300Z,19.17
2019-04-30T07:02:31.396Z,18.47
2019-04-30T07:05:00.490Z,19.37
2019-04-30T07:07:37.871Z,18.70
2019-04-30T07:10:23.806Z,17.23
2019-04-30T07:13:01.098Z,18.13
2019-04-30T07:15:30.264Z,17.90
2019-04-30T07:17:59.362Z,18.00
2019-04-30T07:20:29.163Z,19.07
2019-04-30T07:23:02.802Z,23.20
2019-04-30T07:25:29.392Z,18.47
2019-04-30T07:27:59.791Z,18.40
2019-04-30T07:30:30.845Z,17.57
2019-04-30T07:33:00.198Z,15.27
2019-04-30T07:35:30.166Z,17.40
2019-04-30T07:38:00.501Z,18.40
2019-04-30T07:40:30.031Z,15.27
2019-04-30T07:42:59.245Z,17.60
2019-04-30T07:45:31.597Z,18.53
2019-04-30T07:47:59.472Z,14.43
2019-04-30T07:50:31.338Z,17.00
2019-04-30T07:53:05.565Z,20.40
2019-04-30T07:55:30.371Z,17.57
2019-04-30T07:57:59.516Z,13.77
2019-04-30T08:00:30.990Z,15.80
2019-04-30T08:03:10.750Z,15.57
2019-04-30T08:05:42.581Z,14.93
2019-04-30T08:08:20.937Z,13.97
2019-04-30T08:10:42.511Z,15.60
2019-04-30T08:13:14.876Z,14.63
2019-04-30T08:15:42.559Z,17.13
2019-04-30T08:18:11.638Z,15.27
2019-04-30T08:20:40.648Z,15.67
2019-04-30T08:23:20.293Z,15.33
2019-04-30T08:25:40.439Z,16.77
2019-04-30T08:28:09.511Z,15.80
2019-04-30T08:30:39.120Z,20.67
2019-04-30T08:33:09.452Z,15.37
2019-04-30T08:35:39.773Z,15.77
2019-04-30T08:38:10.807Z,20.37
2019-04-30T08:40:52.835Z,19.83
2019-04-30T08:43:11.019Z,17.07
2019-04-30T08:45:40.104Z,17.77
2019-04-30T08:48:09.186Z,17.73
2019-04-30T08:50:39.548Z,18.10
2019-04-30T08:53:10.914Z,17.03
2019-04-30T08:55:39.962Z,19.23
2019-04-30T08:58:12.485Z,17.97
2019-04-30T09:00:39.912Z,19.33
2019-04-30T09:03:09.416Z,18.60
2019-04-30T09:05:56.102Z,18.20
2019-04-30T09:08:25.311Z,19.23
2019-04-30T09:10:54.398Z,18.13
2019-04-30T09:13:23.482Z,20.97
2019-04-30T09:15:52.620Z,17.90
2019-04-30T09:18:21.724Z,16.83
2019-04-30T09:20:50.868Z,18.50
2019-04-30T09:23:19.932Z,19.73
2019-04-30T09:25:49.687Z,20.47
2019-04-30T09:28:19.868Z,18.93
2019-04-30T09:30:49.243Z,18.30
2019-04-30T09:33:19.428Z,17.30
2019-04-30T09:35:49.524Z,22.10
2019-04-30T09:38:19.530Z,17.57
2019-04-30T09:40:50.542Z,20.13
2019-04-30T09:43:19.596Z,19.20
2019-04-30T09:45:49.726Z,19.43
2019-04-30T09:48:19.241Z,20.17
2019-04-30T09:50:49.701Z,21.60
2019-04-30T09:53:20.046Z,24.40
2019-04-30T09:55:49.734Z,25.17
2019-04-30T09:58:21.120Z,28.13
2019-04-30T10:00:50.445Z,29.67
2019-04-30T10:03:20.733Z,26.50
2019-04-30T10:05:50.271Z,25.07
2019-04-30T10:08:20.878Z,25.60
2019-04-30T10:11:05.857Z,27.77
2019-04-30T10:13:35.056Z,29.77
2019-04-30T10:16:10.813Z,25.40
2019-04-30T10:18:39.987Z,26.97
2019-04-30T10:21:09.185Z,24.97
2019-04-30T10:23:39.191Z,27.10
2019-04-30T10:26:08.627Z,27.00
2019-04-30T10:28:40.696Z,25.87
2019-04-30T10:31:10.100Z,21.63
2019-04-30T10:33:39.210Z,17.77
2019-04-30T10:36:09.372Z,18.67
2019-04-30T10:38:39.391Z,18.83
2019-04-30T10:41:08.886Z,16.23
2019-04-30T10:43:39.355Z,19.20
2019-04-30T10:46:09.721Z,18.07
2019-04-30T10:48:38.934Z,19.77
2019-04-30T10:51:09.042Z,15.77
2019-04-30T10:53:38.376Z,14.63
2019-04-30T10:56:09.582Z,13.80
2019-04-30T10:58:38.218Z,12.13
2019-04-30T11:01:09.252Z,12.70
2019-04-30T11:03:39.134Z,12.67
2019-04-30T11:06:08.720Z,11.03
2019-04-30T11:08:37.817Z,10.60
2019-04-30T11:11:06.925Z,11.40
2019-04-30T11:13:36.074Z,13.13
2019-04-30T11:16:12.529Z,13.93
2019-04-30T11:18:36.095Z,15.43
2019-04-30T11:21:05.906Z,11.67
2019-04-30T11:23:35.284Z,12.50
2019-04-30T11:26:05.146Z,13.43
2019-04-30T11:28:34.647Z,11.33
2019-04-30T11:31:26.122Z,12.67
2019-04-30T11:33:56.796Z,11.70
2019-04-30T11:36:25.895Z,14.90
2019-04-30T11:38:55.068Z,11.07
2019-04-30T11:41:31.048Z,9.40
2019-04-30T11:43:55.067Z,8.53
2019-04-30T11:46:52.287Z,8.07
2019-04-30T11:49:21.335Z,9.17
2019-04-30T11:51:50.406Z,9.87
2019-04-30T11:54:19.613Z,10.77
2019-04-30T11:56:50.399Z,8.10
2019-04-30T11:59:19.674Z,9.97
2019-04-30T12:01:50.954Z,11.10
2019-04-30T12:04:20.028Z,11.73
2019-04-30T12:06:49.488Z,10.27
2019-04-30T12:09:55.869Z,12.53
2019-04-30T12:12:25.775Z,10.87
2019-04-30T12:14:54.875Z,12.93
2019-04-30T12:17:24.147Z,13.53
2019-04-30T12:19:53.240Z,11.90
2019-04-30T12:22:22.334Z,15.17
2019-04-30T12:25:02.294Z,13.30
2019-04-30T12:27:22.304Z,15.90
2019-04-30T12:29:51.385Z,12.23
2019-04-30T12:32:21.345Z,11.03
2019-04-30T12:34:50.601Z,10.50
2019-04-30T12:37:19.575Z,14.27
2019-04-30T12:39:49.480Z,11.90
2019-04-30T12:42:18.926Z,9.90
2019-04-30T12:44:49.577Z,11.43
2019-04-30T12:47:21.735Z,11.57
2019-04-30T12:50:05.815Z,9.13
2019-04-30T12:52:43.527Z,10.73
2019-04-30T12:55:29.261Z,10.30
2019-04-30T12:57:59.629Z,12.03
2019-04-30T13:00:29.381Z,12.80
2019-04-30T13:02:58.498Z,10.63
2019-04-30T13:05:29.625Z,11.00
2019-04-30T13:08:00.108Z,10.30
2019-04-30T13:10:30.247Z,10.30
2019-04-30T13:13:00.101Z,9.47
2019-04-30T13:15:29.693Z,11.17
2019-04-30T13:17:59.014Z,12.30
2019-04-30T13:20:29.313Z,11.27
2019-04-30T13:22:58.908Z,8.67
2019-04-30T13:25:35.212Z,10.60
2019-04-30T13:28:03.980Z,11.50
2019-04-30T13:30:33.249Z,9.13
2019-04-30T13:33:28.852Z,11.13
2019-04-30T13:35:58.817Z,10.73
2019-04-30T13:38:56.052Z,11.03
2019-04-30T13:41:33.794Z,9.73
2019-04-30T13:46:30.474Z,10.70
2019-04-30T13:48:59.777Z,10.83
2019-04-30T13:51:28.842Z,9.87
2019-04-30T13:53:57.947Z,13.10
2019-04-30T13:56:28.669Z,9.57
2019-04-30T13:58:58.067Z,9.87
2019-04-30T14:01:29.253Z,10.60
2019-04-30T14:04:23.105Z,12.00
2019-04-30T14:07:09.131Z,11.47
2019-04-30T14:09:38.429Z,11.10
2019-04-30T14:12:07.720Z,10.43
2019-04-30T14:14:39.436Z,10.17
2019-04-30T14:17:09.207Z,9.67
2019-04-30T14:19:38.512Z,11.17
2019-04-30T14:22:08.976Z,10.17
2019-04-30T14:24:38.327Z,10.70
2019-04-30T14:27:09.025Z,12.00
2019-04-30T14:29:39.547Z,11.27
2019-04-30T14:32:09.019Z,10.77
2019-04-30T14:34:39.526Z,9.43
2019-04-30T14:37:08.859Z,13.13
2019-04-30T14:39:38.477Z,10.90
2019-04-30T14:42:10.603Z,11.40
2019-04-30T14:44:40.424Z,12.07
2019-04-30T14:47:20.859Z,12.53
2019-04-30T14:50:05.047Z,12.43
2019-04-30T14:52:37.704Z,11.53
2019-04-30T14:55:18.975Z,12.80
2019-04-30T14:58:16.814Z,12.53
2019-04-30T15:00:59.352Z,16.37
2019-04-30T15:03:29.550Z,15.37
2019-04-30T15:05:59.031Z,14.83
2019-04-30T15:08:29.288Z,14.60
2019-04-30T15:10:58.775Z,11.10
2019-04-30T15:13:29.535Z,13.73
2019-04-30T15:15:59.050Z,14.70
2019-04-30T15:18:29.054Z,14.60
2019-04-30T15:20:59.444Z,11.93
2019-04-30T15:24:02.972Z,12.60
2019-04-30T15:26:32.148Z,13.87
2019-04-30T15:29:01.306Z,13.87
2019-04-30T15:31:30.842Z,16.57
2019-04-30T15:34:11.160Z,15.37
2019-04-30T15:36:40.741Z,15.53
2019-04-30T15:39:19.338Z,11.23
2019-04-30T15:41:48.548Z,15.27
2019-04-30T15:44:18.578Z,12.10
2019-04-30T15:46:47.881Z,11.60
2019-04-30T15:49:17.103Z,12.30
2019-04-30T15:51:46.480Z,12.43
2019-04-30T15:54:15.664Z,12.00
2019-04-30T15:56:44.883Z,15.30
2019-04-30T15:59:28.958Z,16.67
2019-04-30T16:02:02.301Z,14.03
2019-04-30T16:04:42.492Z,12.97
2019-04-30T16:07:11.789Z,11.53
2019-04-30T16:09:51.009Z,11.40
2019-04-30T16:12:30.025Z,13.27
2019-04-30T16:14:59.120Z,11.47
2019-04-30T16:17:29.176Z,11.03
2019-04-30T16:19:58.543Z,11.73
2019-04-30T16:22:29.171Z,10.03
2019-04-30T16:25:00.442Z,10.13
2019-04-30T16:27:29.327Z,12.00
2019-04-30T16:29:59.468Z,11.27
2019-04-30T16:32:28.943Z,14.03
2019-04-30T16:34:59.287Z,13.20
2019-04-30T16:37:28.811Z,16.80
2019-04-30T16:39:57.977Z,13.77
2019-04-30T16:42:28.989Z,14.10
2019-04-30T16:45:00.543Z,13.30
2019-04-30T16:47:29.716Z,15.23
2019-04-30T16:49:59.043Z,13.73
2019-04-30T16:52:29.418Z,15.23
2019-04-30T16:54:59.073Z,14.80
2019-04-30T16:57:30.104Z,14.77
2019-04-30T16:59:59.369Z,15.33
2019-04-30T17:02:30.612Z,13.87
2019-04-30T17:05:04.494Z,17.07
2019-04-30T17:07:45.161Z,12.03
2019-04-30T17:10:34.038Z,12.47
2019-04-30T17:13:11.143Z,11.13
2019-04-30T17:15:40.578Z,9.73
2019-04-30T17:18:12.002Z,12.17
2019-04-30T17:20:41.045Z,12.60
2019-04-30T17:23:10.083Z,10.17
2019-04-30T17:25:39.350Z,12.83
2019-04-30T17:28:09.188Z,11.70
2019-04-30T17:30:39.253Z,11.43
2019-04-30T17:33:09.528Z,11.70
2019-04-30T17:35:39.183Z,10.93
2019-04-30T17:38:08.267Z,10.97
2019-04-30T17:40:38.972Z,9.53
2019-04-30T17:43:08.508Z,12.50
2019-04-30T17:45:39.168Z,10.77
2019-04-30T17:48:08.679Z,11.27
2019-04-30T17:50:39.697Z,9.77
2019-04-30T17:53:09.135Z,9.33
2019-04-30T17:55:39.162Z,11.40
2019-04-30T17:58:09.772Z,8.90
2019-04-30T18:00:41.431Z,9.47
2019-04-30T18:03:11.207Z,10.43
2019-04-30T18:05:40.277Z,7.70
2019-04-30T18:08:09.404Z,7.30
2019-04-30T18:10:38.517Z,14.20
2019-04-30T18:13:07.619Z,7.30
2019-04-30T18:15:36.697Z,9.30
2019-04-30T18:18:30.773Z,7.77
2019-04-30T18:21:19.022Z,6.87
2019-04-30T18:24:13.397Z,9.43
2019-04-30T18:26:48.832Z,6.13
2019-04-30T18:29:18.041Z,10.30
2019-04-30T18:31:47.236Z,8.77
2019-04-30T18:34:16.567Z,7.43
2019-04-30T18:36:45.744Z,7.43
2019-04-30T18:39:15.354Z,8.87
2019-04-30T18:41:44.458Z,11.97
2019-04-30T18:44:13.844Z,6.03
2019-04-30T18:46:42.953Z,6.57
2019-04-30T18:49:12.105Z,7.87
2019-04-30T18:51:42.675Z,7.37
2019-04-30T18:54:12.043Z,7.43
2019-04-30T18:56:41.134Z,8.63
2019-04-30T18:59:10.348Z,7.53
2019-04-30T19:01:39.507Z,7.63
2019-04-30T19:04:09.188Z,5.63
2019-04-30T19:06:38.865Z,7.37
2019-04-30T19:09:29.723Z,6.50
2019-04-30T19:12:16.272Z,9.30
2019-04-30T19:15:00.046Z,7.20
2019-04-30T19:17:40.862Z,7.77
2019-04-30T19:20:29.172Z,10.17
2019-04-30T19:22:58.282Z,7.47
2019-04-30T19:25:28.907Z,7.60
2019-04-30T19:28:09.556Z,7.30
2019-04-30T19:30:29.518Z,7.23
2019-04-30T19:32:59.964Z,11.70
2019-04-30T19:35:29.059Z,6.83
2019-04-30T19:37:59.233Z,8.53
2019-04-30T19:40:28.666Z,7.03
2019-04-30T19:42:57.992Z,9.57
2019-04-30T19:45:27.692Z,7.90
2019-04-30T19:47:58.652Z,10.47
2019-04-30T19:50:28.491Z,7.97
2019-04-30T19:52:58.770Z,8.17
2019-04-30T19:55:28.608Z,9.70
2019-04-30T19:57:59.831Z,7.30
2019-04-30T20:00:30.919Z,7.23
2019-04-30T20:03:00.136Z,7.07
2019-04-30T20:05:29.333Z,9.83
2019-04-30T20:07:59.192Z,9.57
2019-04-30T20:10:28.836Z,10.77
2019-04-30T20:12:58.760Z,11.47
2019-04-30T20:15:29.847Z,12.40
2019-04-30T20:18:01.008Z,20.20
2019-04-30T20:20:29.915Z,18.03
2019-04-30T20:22:59.304Z,20.93
2019-04-30T20:25:28.650Z,16.63
2019-04-30T20:27:57.762Z,17.90
2019-04-30T20:30:26.843Z,16.90
2019-04-30T20:32:56.158Z,18.97
2019-04-30T20:35:25.231Z,18.90
2019-04-30T20:38:12.063Z,20.27
2019-04-30T20:40:43.863Z,21.53
2019-04-30T20:43:13.827Z,22.80
2019-04-30T20:45:42.927Z,22.30
2019-04-30T20:48:11.921Z,20.07
2019-04-30T20:50:41.246Z,23.43
2019-04-30T20:53:10.329Z,23.60
2019-04-30T20:55:40.816Z,21.30
2019-04-30T20:58:10.347Z,25.93
2019-04-30T21:00:39.473Z,24.07
2019-04-30T21:03:09.712Z,26.47
2019-04-30T21:05:39.325Z,26.80
2019-04-30T21:08:08.544Z,26.27
2019-04-30T21:10:39.577Z,25.60
2019-04-30T21:13:11.001Z,28.37
2019-04-30T21:15:39.709Z,25.30
2019-04-30T21:18:09.450Z,25.63
2019-04-30T21:20:38.868Z,27.00
2019-04-30T21:23:09.426Z,26.60
2019-04-30T21:25:38.833Z,27.83
2019-04-30T21:28:09.717Z,27.63
2019-04-30T21:30:39.082Z,26.80
2019-04-30T21:35:39.070Z,23.03
2019-04-30T21:38:09.388Z,25.47
2019-04-30T21:40:39.416Z,27.73
2019-04-30T21:43:08.701Z,26.50
2019-04-30T21:45:39.843Z,26.87
2019-04-30T21:48:09.149Z,27.27
2019-04-30T21:50:39.708Z,29.27
2019-04-30T21:53:09.861Z,27.53
2019-04-30T21:55:39.953Z,24.67
2019-04-30T21:58:09.656Z,25.47
2019-04-30T22:00:54.846Z,29.87
2019-04-30T22:03:24.067Z,28.33
2019-04-30T22:05:53.240Z,25.97
2019-04-30T22:08:22.377Z,26.57
2019-04-30T22:10:51.563Z,27.80
2019-04-30T22:13:20.654Z,25.80
2019-04-30T22:15:49.883Z,24.67
2019-04-30T22:18:19.034Z,23.63
2019-04-30T22:20:49.767Z,25.30
2019-04-30T22:23:19.072Z,24.73
2019-04-30T22:25:49.094Z,24.90
2019-04-30T22:28:18.402Z,23.47
2019-04-30T22:30:48.353Z,23.23
2019-04-30T22:33:19.403Z,21.03
2019-04-30T22:35:57.693Z,22.90
2019-04-30T22:38:30.383Z,22.17
2019-04-30T22:40:59.780Z,25.03
2019-04-30T22:43:28.878Z,23.70
2019-04-30T22:46:02.722Z,26.70
2019-04-30T22:48:31.755Z,26.33
2019-04-30T22:51:00.999Z,25.27
2019-04-30T22:53:30.383Z,28.30
2019-04-30T22:55:59.413Z,25.67
2019-04-30T22:58:28.523Z,27.07
2019-04-30T23:01:10.258Z,26.57
2019-04-30T23:03:39.335Z,35.33
2019-04-30T23:06:08.427Z,26.93
2019-04-30T23:08:37.864Z,27.50
2019-04-30T23:11:06.974Z,25.53
2019-04-30T23:13:36.168Z,27.47
2019-04-30T23:16:06.176Z,28.17
2019-04-30T23:18:35.249Z,23.47
2019-04-30T23:21:04.338Z,24.20
2019-04-30T23:23:33.646Z,22.87
2019-04-30T23:26:02.654Z,24.03
2019-04-30T23:28:31.690Z,26.17
2019-04-30T23:31:00.942Z,24.83
2019-04-30T23:33:30.053Z,24.50
2019-04-30T23:35:59.222Z,24.20
2019-04-30T23:38:28.654Z,27.43
2019-04-30T23:40:57.740Z,24.27
2019-04-30T23:43:26.812Z,27.40
2019-04-30T23:45:56.342Z,25.63
2019-04-30T23:48:25.412Z,27.20
2019-04-30T23:50:54.504Z,27.47
2019-04-30T23:53:23.796Z,28.23
2019-04-30T23:55:52.902Z,28.80
2019-04-30T23:58:21.995Z,28.97
